Flight Track Log - Related Links

Times and Time Zones

All times are in EDT time to prevent confusion due to time zone crossing. See the UPS1219 flight status page for this flight to view local times or setup timezone preferences in your user account.

Time Position Orientation Groundspeed Altitude Reporting Facility
EDT Latitude Longitude Course Direction KTS MPH feet Rate Location/Type
Thu 10:55:18 PM 38.9400 -77.5070 242° Southwest 170 196 1,900  Level FlightAware ADS-B
Thu 10:55:43 PM 38.9300 -77.5320 243° Southwest 215 247 2,700 2,073 Climbing FlightAware ADS-B
Thu 10:56:13 PM 38.9130 -77.5700 240° Southwest 268 308 3,800 3,055 Climbing FlightAware ADS-B
Thu 10:56:38 PM 38.9000 -77.6050 244° Southwest 273 314 5,500 4,036 Climbing FlightAware ADS-B
Thu 10:57:08 PM 38.8830 -77.6520 245° Southwest 284 327 7,500 3,960 Climbing FlightAware ADS-B
Thu 10:57:28 PM 38.8720 -77.6810 244° Southwest 288 331 8,800 3,771 Climbing FlightAware ADS-B
Thu 10:57:43 PM 38.8640 -77.7020 244° Southwest 293 337 9,700 1,800 Climbing FlightAware ADS-B
Thu 10:58:28 PM 38.8520 -77.7910 260° West 313 360 10,600 1,976 Climbing FlightAware ADS-B
Thu 10:59:08 PM 38.8540 -77.8830 272° West 391 450 12,500 3,075 Climbing FlightAware ADS-B
Thu 10:59:48 PM 38.8540 -77.9790 270° West 402 463 14,700 3,108 Climbing FlightAware ADS-B
Thu 11:00:31 PM 38.8540 -78.0840 270° West 415 478 16,800 2,831 Climbing FlightAware ADS-B
Thu 11:01:17 PM 38.8540 -78.1990 270° West 429 494 18,900 2,541 Climbing FlightAware ADS-B
Thu 11:01:56 PM 38.8530 -78.2980 269° West 441 507 20,400 2,480 Climbing FlightAware ADS-B
Thu 11:02:32 PM 38.8510 -78.3940 268° West 448 516 22,000 2,526 Climbing FlightAware ADS-B
Thu 11:03:12 PM 38.8500 -78.5010 269° West 457 526 23,600 2,302 Climbing FlightAware ADS-B
Thu 11:03:58 PM 38.8480 -78.6270 269° West 465 535 25,300 2,385 Climbing FlightAware ADS-B
Thu 11:04:30 PM 38.8470 -78.7150 269° West 462 532 26,700 2,560 Climbing FlightAware ADS-B
Thu 11:05:13 PM 38.8450 -78.8280 269° West 457 526 28,500 2,313 Climbing FlightAware ADS-B
Thu 11:05:53 PM 38.8430 -78.9350 269° West 456 525 29,900 1,059 Climbing FlightAware ADS-B
Thu 11:06:38 PM 38.8410 -79.0630 269° West 464 534 30,000 71 Climbing FlightAware ADS-B
Thu 11:07:18 PM 38.8390 -79.1610 269° West 457 526 30,000  Level FlightAware ADS-B
Thu 11:07:58 PM 38.8370 -79.2690 269° West 453 521 30,000  Level FlightAware ADS-B
Thu 11:08:38 PM 38.8350 -79.3850 269° West 453 521 30,000  Level FlightAware ADS-B
Thu 11:09:18 PM 38.8330 -79.4920 269° West 455 524 30,000  Level FlightAware ADS-B
Thu 11:09:58 PM 38.8310 -79.5940 269° West 456 525 30,000  Level FlightAware ADS-B
Thu 11:10:38 PM 38.8290 -79.6970 269° West 455 524 30,000  Level FlightAware ADS-B
Thu 11:13:30 PM 38.8170 -80.1110 268° West 454 522 30,000  Level FlightAware ADS-B
Thu 11:14:20 PM 38.8130 -80.3020 269° West 453 521 30,000  Level FlightAware ADS-B
Thu 11:15:01 PM 38.8100 -80.4130 268° West 451 519 30,000  Level FlightAware ADS-B
Thu 11:15:45 PM 38.8110 -80.5300 271° West 450 518 30,000  Level FlightAware ADS-B
Thu 11:16:25 PM 38.8180 -80.6310 275° West 450 518 30,000  Level FlightAware ADS-B
Thu 11:17:02 PM 38.8220 -80.7150 274° West 450 518 30,000  Level FlightAware ADS-B
Thu 11:17:51 PM 38.8280 -80.8260 274° West 450 518 30,000  Level FlightAware ADS-B
Thu 11:18:23 PM 38.8370 -80.9390 276° West 453 521 30,000  Level FlightAware ADS-B
Thu 11:19:13 PM 38.8470 -81.0860 275° West 454 522 30,000  Level FlightAware ADS-B
Thu 11:19:53 PM 38.8530 -81.1910 274° West 451 519 30,000  Level FlightAware ADS-B
Thu 11:20:37 PM 38.8610 -81.3100 275° West 450 518 30,000  Level FlightAware ADS-B
Thu 11:21:17 PM 38.8670 -81.4150 274° West 451 519 30,000  Level FlightAware ADS-B
Thu 11:22:02 PM 38.8740 -81.5350 274° West 450 518 30,000  Level FlightAware ADS-B
Thu 11:22:42 PM 38.8800 -81.6420 274° West 448 516 30,000  Level FlightAware ADS-B
Thu 11:23:24 PM 38.8860 -81.7530 274° West 446 513 30,000  Level FlightAware ADS-B
Thu 11:24:08 PM 38.8930 -81.8690 274° West 445 512 30,000  Level FlightAware ADS-B
Thu 11:24:47 PM 38.8990 -81.9730 274° West 445 512 30,000  Level FlightAware ADS-B
Thu 11:25:31 PM 38.9050 -82.0870 274° West 445 512 30,000  Level FlightAware ADS-B
Thu 11:26:15 PM 38.9110 -82.2010 274° West 444 511 30,000  Level FlightAware ADS-B
Thu 11:26:53 PM 38.9160 -82.2940 274° West 446 513 30,000  Level FlightAware ADS-B
Thu 11:27:32 PM 38.9210 -82.4020 273° West 446 513 30,000  Level FlightAware ADS-B
Thu 11:28:11 PM 38.9260 -82.5040 274° West 447 514 30,000  Level FlightAware ADS-B
Thu 11:28:54 PM 38.9320 -82.6210 274° West 446 513 30,000  Level FlightAware ADS-B
Thu 11:29:35 PM 38.9370 -82.7260 274° West 445 512 30,000  Level FlightAware ADS-B
Thu 11:30:18 PM 38.9430 -82.8380 274° West 444 511 30,000  Level FlightAware ADS-B
Thu 11:31:00 PM 38.9480 -82.9530 273° West 446 513 30,000  Level FlightAware ADS-B
Thu 11:31:40 PM 38.9530 -83.0580 274° West 448 516 30,000  Level FlightAware ADS-B
Thu 11:32:19 PM 38.9470 -83.1610 266° West 452 520 30,000  Level FlightAware ADS-B
Thu 11:32:58 PM 38.9370 -83.2690 263° West 466 536 30,000  Level FlightAware ADS-B
Thu 11:33:40 PM 38.9260 -83.3830 263° West 472 543 30,000  Level FlightAware ADS-B
Thu 11:34:21 PM 38.9150 -83.4960 263° West 470 541 30,000  Level FlightAware ADS-B
Thu 11:34:58 PM 38.9050 -83.5970 263° West 468 539 30,000  Level FlightAware ADS-B
Thu 11:35:42 PM 38.8930 -83.7230 263° West 469 540 30,000  Level FlightAware ADS-B
Thu 11:36:39 PM 38.8780 -83.8630 262° West 469 540 30,000  Level FlightAware ADS-B
Thu 11:37:15 PM 38.8690 -83.9480 262° West 469 540 30,000  Level FlightAware ADS-B
Thu 11:38:03 PM 38.8560 -84.0600 262° West 469 540 30,000  Level FlightAware ADS-B
Thu 11:38:39 PM 38.8470 -84.1450 262° West 469 540 30,000  Level FlightAware ADS-B
Thu 11:39:27 PM 38.8350 -84.2570 262° West 469 540 30,000 -4,020 Level FlightAware ADS-B
Thu 11:41:04 PM 38.8030 -84.5920 263° West 19,200 -5,289 Descending FlightAware ADS-B
Thu 11:41:59 PM 38.7900 -84.7290 263° West 437 503 16,600 -2,936 Descending FlightAware ADS-B
Thu 11:42:38 PM 38.7780 -84.8270 261° West 409 471 14,600 -1,867 Descending FlightAware ADS-B
Thu 11:43:29 PM 38.7610 -84.9360 259° West 397 457 13,800 -1,395 Descending FlightAware ADS-B
Thu 11:44:04 PM 38.7170 -84.9970 227° Southwest 397 457 12,600 -2,040 Descending FlightAware ADS-B
Thu 11:44:19 PM 38.6940 -85.0180 215° Southwest 383 441 12,100 -716 Descending FlightAware ADS-B
Thu 11:45:11 PM 38.6260 -85.0830 217° Southwest 383 441 11,800 -222 Descending FlightAware ADS-B
Thu 11:46:07 PM 38.5490 -85.1570 217° Southwest 383 441 11,700 -766 Descending FlightAware ADS-B
Thu 11:46:45 PM 38.4870 -85.2150 216° Southwest 375 432 10,600 -1,149 Descending FlightAware ADS-B
Thu 11:47:41 PM 38.4200 -85.3050 226° Southwest 372 428 9,900 -488 Descending FlightAware ADS-B
Thu 11:48:11 PM 38.3910 -85.3610 237° Southwest 373 429 9,900  Level FlightAware ADS-B
Thu 11:48:44 PM 38.3620 -85.4170 237° Southwest 373 429 9,900  Level FlightAware ADS-B
Thu 11:48:59 PM 38.3490 -85.4400 234° Southwest 373 429 9,900  Level FlightAware ADS-B
Thu 11:49:27 PM 38.3190 -85.5000 238° Southwest 372 428 9,900  Level FlightAware ADS-B
Thu 11:49:55 PM 38.2930 -85.5510 237° Southwest 371 427 9,900 -111 Level FlightAware ADS-B
Thu 11:50:21 PM 38.2690 -85.5990 238° Southwest 363 418 9,800  Descending FlightAware ADS-B
Thu 11:50:51 PM 38.2510 -85.6540 247° West 322 371 9,900  Climbing FlightAware ADS-B
Thu 11:51:07 PM 38.2460 -85.6840 258° West 308 354 9,800 -682 Descending FlightAware ADS-B
Thu 11:51:35 PM 38.2450 -85.7330 269° West 295 339 9,400 -1,179 Descending FlightAware ADS-B
Thu 11:52:03 PM 38.2440 -85.7810 268° West 290 334 8,700 -1,500 Descending FlightAware ADS-B
Thu 11:52:31 PM 38.2430 -85.8290 268° West 287 330 8,000 -1,607 Descending FlightAware ADS-B
Thu 11:52:59 PM 38.2310 -85.8720 250° West 281 323 7,200 -1,650 Descending FlightAware ADS-B
Thu 11:53:11 PM 38.2190 -85.8840 218° Southwest 280 322 6,900 -1,600 Descending FlightAware ADS-B
Thu 11:53:29 PM 38.1970 -85.8910 194° South 280 322 6,400 -1,500 Descending FlightAware ADS-B
Thu 11:53:59 PM 38.1600 -85.8750 161° South 277 319 5,700 -1,448 Descending FlightAware ADS-B
Thu 11:54:27 PM 38.1290 -85.8570 155° Southeast 263 303 5,000 -857 Descending FlightAware ADS-B
Thu 11:54:55 PM 38.1000 -85.8390 154° Southeast 237 273 4,900 -115 Descending FlightAware ADS-B
Thu 11:55:19 PM 38.0770 -85.8260 156° South 212 244 4,900  Level FlightAware ADS-B
Thu 11:55:47 PM 38.0540 -85.8110 153° Southeast 208 239 4,900 -321 Level FlightAware ADS-B
Thu 11:56:15 PM 38.0280 -85.7960 156° South 210 242 4,600 -750 Descending FlightAware ADS-B
Thu 11:56:27 PM 38.0170 -85.7890 153° Southeast 208 239 4,400 -900 Descending FlightAware ADS-B
Thu 11:56:55 PM 37.9920 -85.7790 163° South 201 231 4,000 -536 Descending FlightAware ADS-B
Thu 11:57:23 PM 37.9670 -85.7710 166° South 202 232 3,900 -130 Descending FlightAware ADS-B
Thu 11:57:41 PM 37.9510 -85.7650 164° South 203 234 3,900  Level FlightAware ADS-B
Thu 11:58:11 PM 37.9240 -85.7540 162° South 205 236 3,900  Level FlightAware ADS-B
Thu 11:58:27 PM 37.9160 -85.7390 124° Southeast 209 241 3,900  Level FlightAware ADS-B
Thu 11:58:39 PM 37.9160 -85.7240 90° East 211 243 3,900  Level FlightAware ADS-B
Thu 11:58:56 PM 37.9220 -85.7060 67° East 212 244 3,900  Level FlightAware ADS-B
Thu 11:59:08 PM 37.9320 -85.6980 32° Northeast 213 245 3,900 -154 Level FlightAware ADS-B
Thu 11:59:35 PM 37.9590 -85.6880 16° North 208 239 3,800 -235 Descending FlightAware ADS-B
Thu 11:59:59 PM 37.9810 -85.6820 12° North 204 235 3,700 -545 Descending FlightAware ADS-B
Fri 12:00:19 AM 37.9970 -85.6860 349° North 203 234 3,400 -1,091 Descending FlightAware ADS-B
Fri 12:00:43 AM 38.0190 -85.6940 344° North 205 236 2,900 -982 Descending FlightAware ADS-B
Fri 12:01:14 AM 38.0460 -85.7020 347° North 180 207 2,500 -828 Descending FlightAware ADS-B
Fri 12:01:41 AM 38.0680 -85.7100 344° North 162 186 2,100 -873 Descending FlightAware ADS-B
Fri 12:02:09 AM 38.0870 -85.7160 346° North 144 166 1,700 -750 Descending FlightAware ADS-B
Fri 12:02:29 AM 38.1000 -85.7200 346° North 139 160 1,500 -612 Descending FlightAware ADS-B
Fri 12:02:58 AM 38.1180 -85.7260 345° North 142 163 1,200 -737 Descending FlightAware ADS-B
Fri 12:03:26 AM 38.1350 -85.7320 344° North 141 162 800 -792 Descending FlightAware ADS-B
Fri 12:03:51 AM 38.1510 -85.7370 346° North 139 160 500 -686 Descending FlightAware ADS-B
Fri 12:04:01 AM 38.1570 -85.7390 345° North 139 160 400 -600 Descending FlightAware ADS-B
Fri 12:04:39 AM 38.1740 -85.7450 344° North 38 44 -632 Descending FlightAware ADS-B
Fri 12:05:47 AM 38.1750 -85.7420 67° East 17 20  Level FlightAware ADS-B
Fri 12:06:15 AM 38.1730 -85.7420 180° South 16 18  Level FlightAware ADS-B
Fri 12:06:59 AM 38.1710 -85.7400 142° Southeast 14 16  Level FlightAware ADS-B
Fri 12:07:31 AM 38.1710 -85.7390 90° East 18 21  Level FlightAware ADS-B

Login

Don't have an account? Register now (free) for customized features, flight alerts, and more!